Ralph, AL (35480)

12:54 AM CDT on March 30, 2015 (GMT -0500)
Woodhaven Farms | | Change Station
CLOSE
Current Station
Personal Weather Station
Location: Ralph, AL
Elevation: 249 ft
Nearby Weather Stations

Elev 249 ft 33.10 °N, 87.76 °W | Updated 9 seconds ago

Mostly Cloudy
Mostly Cloudy
62.1 °F
Feels Like 62.1 °F
N
6.0
Wind Variable Wind from SSW
Gusts 7.4 mph

Today
High -- | Low -- °F
--% Chance of Precip.
Yesterday
High -- | Low -- °F
Precip. -- in
6:41 AM 7:09 PM
Waxing Gibbous, 77% visible
Pressure 30.18 in
Visibility 10.0 miles
Clouds Mostly Cloudy 2200 ft
Overcast 6000 ft
Dew Point 56 °F
Humidity 82%
Rainfall 0.00 in
Snow Depth Not available.
UV 0.0 out of 12
Pollen 9.70 out of 12
Air Quality Not available.
Flu Activity Not available.
SPECI KTCL 300510Z AUTO 20010KT 10SM BKN022 OVC060 17/12 A3018 RMK AO2 T01670117

More Conditions Fewer Conditions

Pressure 30.18 in
Visibility 10.0 miles
Clouds Mostly Cloudy 2200 ft
Overcast 6000 ft
Dew Point 56 °F
Humidity 82%
Rainfall 0.00 in
Snow Depth Not available.
UV 0.0 out of 12
Pollen 9.70 out of 12
Air Quality Not available.
Flu Activity Not available.
SPECI KTCL 300510Z AUTO 20010KT 10SM BKN022 OVC060 17/12 A3018 RMK AO2 T01670117

More Conditions Fewer Conditions

10-Day Weather Forecast

Almanac

Astronomy

Mar. 30, 2015 Rise Set
Actual Time
Civil Twilight
Nautical Twilight
Astronomical Twilight
Moon
Length of Visible Light
Length of Day
Tomorrow will be .
, % of the Moon is Illuminated

Today's Extremes

State Highs State Lows

Community

WunderPhotos

Upload Photos

1,809,437 photos uploaded!

WunderBlogs® & News

Nearby

Air Quality

  Air Quality AQ Index Pollutant
Not available.

Snow Depth

Station Depth Elevation

Earthquake Activity

City Distance Mag. Time & Date
Minimum magnitude displayed is 2.5.

Coastal Water Temperatures

Place Temperature

Stations

Nearby Weather Stations

Station Location Temp. Windchill Dew Point Humidity Wind Precip. Elev Updated Type